Time;durP1;ratioP1;P1;durP2;ratioP2;P2;SDS_P1;SDS_P2;PMS_P1;PMS_P2;Temp;Humidity;BMP_temperature;BMP_pressure;BME280_temperature;BME280_humidity;BME280_pressure;Samples;Min_cycle;Max_cycle;Signal;HPM_P1;HPM_P2
2022/08/05 00:01:19;;;;;;;3.80;2.50;;;18.20;99.90;;;;;;5046387;28;20508;-83
2022/08/05 00:03:46;;;;;;;3.67;2.10;;;18.10;99.90;;;;;;5045813;28;20512;-83
2022/08/05 00:06:13;;;;;;;3.73;2.20;;;18.10;99.90;;;;;;5046077;28;20458;-83
2022/08/05 00:08:40;;;;;;;3.70;2.00;;;18.00;99.90;;;;;;5045774;28;20488;-83
2022/08/05 00:11:09;;;;;;;3.63;1.90;;;17.90;99.90;;;;;;5046874;28;20460;-83
2022/08/05 00:13:38;;;;;;;3.60;1.80;;;17.90;99.90;;;;;;5045538;28;20472;-82
2022/08/05 00:16:06;;;;;;;3.60;2.00;;;17.90;99.90;;;;;;5045064;28;20453;-83
2022/08/05 00:18:34;;;;;;;3.90;2.57;;;17.70;99.90;;;;;;5044653;28;20461;-83
2022/08/05 00:21:01;;;;;;;3.80;2.47;;;17.70;99.90;;;;;;5044602;28;20465;-83
2022/08/05 00:23:28;;;;;;;5.87;2.87;;;17.70;99.90;;;;;;5044751;28;20486;-83
2022/08/05 00:25:55;;;;;;;3.60;2.00;;;17.70;99.90;;;;;;5044746;28;20956;-83
2022/08/05 00:28:21;;;;;;;3.70;2.20;;;17.70;99.90;;;;;;5043736;28;20461;-83
2022/08/05 00:30:48;;;;;;;3.70;2.40;;;17.70;99.90;;;;;;5044954;28;20448;-83
2022/08/05 00:33:16;;;;;;;3.80;2.50;;;17.70;99.90;;;;;;5043674;28;20470;-82
2022/08/05 00:35:44;;;;;;;4.40;3.53;;;17.50;99.90;;;;;;5043614;28;20462;-83
2022/08/05 00:38:11;;;;;;;3.90;3.00;;;17.70;99.90;;;;;;5043704;28;20453;-83
2022/08/05 00:40:46;;;;;;;3.87;3.20;;;17.60;99.90;;;;;;5041492;28;20464;-82
2022/08/05 00:43:14;;;;;;;4.40;4.00;;;17.60;99.90;;;;;;5044350;28;20485;-82
2022/08/05 00:45:42;;;;;;;5.23;4.73;;;17.60;99.90;;;;;;5043028;28;20464;-83
2022/08/05 00:48:09;;;;;;;4.57;4.17;;;17.50;99.90;;;;;;5043824;28;20449;-83
2022/08/05 00:50:36;;;;;;;4.80;4.40;;;17.50;99.90;;;;;;5044685;28;20473;-83
2022/08/05 00:53:04;;;;;;;5.40;5.00;;;17.50;99.90;;;;;;5042852;28;21007;-82
2022/08/05 00:55:31;;;;;;;5.90;5.40;;;17.50;99.90;;;;;;5043704;28;20837;-82
2022/08/05 00:57:58;;;;;;;6.30;5.80;;;17.50;99.90;;;;;;5044613;28;20456;-82
2022/08/05 01:00:25;;;;;;;6.90;6.40;;;17.40;99.90;;;;;;5044714;28;20448;-82
2022/08/05 01:02:51;;;;;;;7.23;6.73;;;17.40;99.90;;;;;;5045059;28;20495;-83
2022/08/05 01:05:18;;;;;;;7.83;7.33;;;17.20;99.90;;;;;;5043837;28;20451;-82
2022/08/05 01:07:45;;;;;;;8.43;7.93;;;17.40;99.90;;;;;;5044429;28;20465;-83
2022/08/05 01:10:15;;;;;;;9.23;8.63;;;17.40;99.90;;;;;;5044523;28;20464;-83
2022/08/05 01:12:48;;;;;;;10.30;9.70;;;17.60;99.90;;;;;;5045171;28;20479;-83
2022/08/05 01:15:20;;;;;;;10.00;9.40;;;17.40;99.90;;;;;;5044433;28;20498;-83
2022/08/05 01:17:51;;;;;;;10.43;9.83;;;17.40;99.90;;;;;;5045501;28;21376;-83
2022/08/05 01:20:29;;;;;;;11.13;10.53;;;17.40;99.90;;;;;;5043504;28;20838;-82
2022/08/05 01:23:13;;;;;;;11.90;11.20;;;17.40;99.90;;;;;;5040761;28;20484;-82
2022/08/05 01:26:10;;;;;;;13.13;12.43;;;17.30;99.90;;;;;;5040957;28;20452;-82
2022/08/05 01:28:43;;;;;;;13.93;13.23;;;17.50;99.90;;;;;;5041781;28;20459;-83
2022/08/05 01:31:24;;;;;;;17.50;16.70;;;17.20;99.90;;;;;;5042070;28;20955;-82
2022/08/05 01:33:57;;;;;;;22.00;21.00;;;17.30;99.90;;;;;;5042194;28;20468;-84
2022/08/05 01:36:34;;;;;;;24.07;23.00;;;17.30;99.90;;;;;;5042736;28;20529;-84
2022/08/05 01:39:07;;;;;;;25.00;23.90;;;17.20;99.90;;;;;;5042444;28;20456;-84
2022/08/05 01:41:37;;;;;;;28.10;26.90;;;17.30;99.90;;;;;;5043275;28;20452;-84
2022/08/05 01:44:08;;;;;;;31.50;30.23;;;17.30;99.90;;;;;;5041940;28;20485;-83
2022/08/05 01:46:42;;;;;;;33.13;31.83;;;17.50;99.90;;;;;;5042949;28;20472;-84
2022/08/05 01:49:12;;;;;;;38.07;36.60;;;17.40;99.90;;;;;;5043634;28;20456;-84
2022/08/05 01:51:42;;;;;;;37.10;35.70;;;17.60;99.90;;;;;;5043315;28;20526;-84
2022/08/05 01:54:12;;;;;;;40.53;39.00;;;17.60;99.90;;;;;;5042576;28;20467;-84
2022/08/05 01:56:42;;;;;;;41.47;39.87;;;17.80;99.90;;;;;;5042602;28;20462;-85
2022/08/05 01:59:14;;;;;;;46.63;44.87;;;17.70;99.90;;;;;;5047594;28;20466;-84
2022/08/05 02:01:43;;;;;;;49.13;47.33;;;17.80;99.90;;;;;;5047080;28;20805;-84
2022/08/05 02:04:11;;;;;;;54.57;52.57;;;17.80;99.90;;;;;;5045757;28;20487;-83
2022/08/05 02:06:39;;;;;;;55.57;53.57;;;17.90;99.90;;;;;;5047732;28;20452;-85
2022/08/05 02:09:06;;;;;;;52.23;50.33;;;17.80;99.90;;;;;;5047885;28;20955;-85
2022/08/05 02:11:47;;;;;;;59.97;57.77;;;17.80;99.90;;;;;;5047362;28;20464;-84
2022/08/05 02:14:24;;;;;;;66.47;64.10;;;17.80;99.90;;;;;;5047017;28;20849;-83
2022/08/05 02:16:53;;;;;;;78.30;75.60;;;17.80;99.90;;;;;;5047046;28;20451;-84
2022/08/05 02:19:29;;;;;;;82.33;79.53;;;17.90;99.90;;;;;;5048159;28;20452;-83
2022/08/05 02:22:01;;;;;;;85.10;82.20;;;17.80;99.90;;;;;;5046897;28;20461;-84
2022/08/05 02:24:32;;;;;;;98.80;95.53;;;17.80;99.90;;;;;;5046975;28;20473;-84
2022/08/05 02:27:01;;;;;;;93.90;90.80;;;17.90;99.90;;;;;;5048064;28;20460;-84
2022/08/05 02:29:32;;;;;;;107.00;103.50;;;17.80;99.90;;;;;;5048024;28;20453;-84
2022/08/05 02:32:00;;;;;;;112.57;108.77;;;17.80;99.90;;;;;;5047175;28;20458;-84
2022/08/05 02:34:31;;;;;;;123.90;119.90;;;17.80;99.90;;;;;;5046798;28;20471;-84
2022/08/05 02:37:03;;;;;;;114.80;111.10;;;17.80;99.90;;;;;;5043984;28;20458;-83
2022/08/05 02:39:37;;;;;;;106.70;103.20;;;17.80;99.90;;;;;;5046912;28;20440;-83
2022/08/05 02:42:06;;;;;;;55.07;53.07;;;17.80;99.90;;;;;;5041611;28;20494;-83
2022/08/05 02:44:42;;;;;;;8.77;8.27;;;17.70;99.90;;;;;;5039900;28;20471;-85
2022/08/05 02:47:10;;;;;;;14.00;13.30;;;17.60;99.90;;;;;;5038879;28;20441;-84
2022/08/05 02:49:40;;;;;;;17.57;16.77;;;17.40;99.90;;;;;;5039215;28;20465;-84
2022/08/05 02:52:09;;;;;;;19.60;18.70;;;17.60;99.90;;;;;;5038425;28;20481;-84
2022/08/05 02:54:55;;;;;;;16.10;15.30;;;17.50;99.90;;;;;;5041633;28;20451;-84
2022/08/05 02:57:25;;;;;;;21.57;20.67;;;17.50;99.90;;;;;;5035266;28;20472;-85
2022/08/05 02:59:55;;;;;;;23.63;22.63;;;17.40;99.90;;;;;;5036110;28;20939;-86
2022/08/05 03:02:26;;;;;;;23.50;22.50;;;17.30;99.90;;;;;;5034930;28;20465;-85
2022/08/05 03:04:55;;;;;;;31.50;30.30;;;17.50;99.90;;;;;;5038842;28;20446;-85
2022/08/05 03:07:23;;;;;;;30.00;28.80;;;17.30;99.90;;;;;;5042302;28;20453;-84
2022/08/05 03:09:50;;;;;;;33.50;32.20;;;17.20;99.90;;;;;;5043629;28;20500;-85
2022/08/05 03:12:29;;;;;;;43.27;41.67;;;17.10;99.90;;;;;;5044728;28;20478;-85
2022/08/05 03:14:58;;;;;;;45.40;43.70;;;17.30;99.90;;;;;;5043867;28;20463;-85
2022/08/05 03:17:25;;;;;;;52.53;50.37;;;17.40;99.90;;;;;;5043302;28;20554;-85
2022/08/05 03:19:53;;;;;;;58.10;56.00;;;17.60;99.90;;;;;;5041875;28;20991;-86
2022/08/05 03:22:20;;;;;;;60.73;58.53;;;17.30;99.90;;;;;;5041685;28;20455;-85
2022/08/05 03:24:48;;;;;;;65.37;63.07;;;17.60;99.90;;;;;;5041340;28;20894;-85
2022/08/05 03:27:16;;;;;;;64.83;62.53;;;17.50;99.90;;;;;;5041885;28;20463;-85
2022/08/05 03:29:43;;;;;;;69.30;66.90;;;17.60;99.90;;;;;;5043348;28;20973;-85
2022/08/05 03:32:14;;;;;;;79.50;76.77;;;17.60;99.90;;;;;;5042087;28;20525;-85
2022/08/05 03:34:41;;;;;;;79.47;76.77;;;17.60;99.90;;;;;;5042368;28;20448;-85
2022/08/05 03:37:08;;;;;;;75.90;73.30;;;17.60;99.90;;;;;;5041723;28;20511;-85
2022/08/05 03:39:35;;;;;;;76.27;73.67;;;17.80;99.90;;;;;;5040666;28;20473;-86
2022/08/05 03:42:05;;;;;;;73.80;71.20;;;17.60;99.90;;;;;;5040565;28;20605;-85
2022/08/05 03:44:31;;;;;;;74.23;71.70;;;17.50;99.90;;;;;;5039428;28;20486;-85
2022/08/05 03:46:58;;;;;;;71.60;69.10;;;17.60;99.90;;;;;;5040451;28;20455;-84
2022/08/05 03:49:26;;;;;;;72.87;70.37;;;17.70;99.90;;;;;;5039835;28;20500;-85
2022/08/05 03:52:01;;;;;;;78.73;76.03;;;17.70;99.90;;;;;;5039418;28;20455;-85
2022/08/05 03:54:33;;;;;;;70.33;67.90;;;17.70;99.90;;;;;;5040968;28;20529;-85
2022/08/05 03:57:02;;;;;;;71.73;69.23;;;17.80;99.90;;;;;;5043060;28;20967;-85
2022/08/05 03:59:35;;;;;;;71.70;69.20;;;17.80;99.90;;;;;;5041510;28;20463;-85
2022/08/05 04:02:03;;;;;;;67.57;65.17;;;17.80;99.90;;;;;;5041577;28;20456;-85
2022/08/05 04:04:33;;;;;;;66.10;63.80;;;17.70;99.90;;;;;;5042254;28;20476;-85
2022/08/05 04:07:01;;;;;;;63.70;61.40;;;17.80;99.90;;;;;;5043634;28;20470;-85
2022/08/05 04:09:29;;;;;;;59.10;57.00;;;17.70;99.90;;;;;;5044042;28;20466;-85
2022/08/05 04:11:56;;;;;;;59.97;57.87;;;17.70;99.90;;;;;;5044231;28;20454;-85
2022/08/05 04:14:25;;;;;;;58.43;56.37;;;17.60;99.90;;;;;;5042890;28;20998;-85
2022/08/05 04:16:52;;;;;;;52.33;50.43;;;17.60;99.90;;;;;;5042427;28;20449;-85
2022/08/05 04:19:19;;;;;;;53.37;51.47;;;17.80;99.90;;;;;;5041215;28;20453;-85
2022/08/05 04:21:47;;;;;;;51.47;49.57;;;17.70;99.90;;;;;;5042119;28;20538;-85
2022/08/05 04:24:14;;;;;;;47.30;45.53;;;17.60;99.90;;;;;;5039332;28;20497;-84
2022/08/05 04:26:41;;;;;;;34.50;33.10;;;17.70;99.90;;;;;;5036733;28;20456;-85
2022/08/05 04:29:09;;;;;;;37.90;36.40;;;17.70;99.90;;;;;;5037633;28;20449;-85
2022/08/05 04:31:37;;;;;;;41.17;39.63;;;17.70;99.90;;;;;;5036748;28;20446;-85
2022/08/05 04:34:04;;;;;;;35.77;34.37;;;17.70;99.90;;;;;;5036393;28;20480;-85
2022/08/05 04:36:33;;;;;;;47.30;45.50;;;17.60;99.90;;;;;;5038322;28;20459;-85
2022/08/05 04:42:23;;;;;;;54.10;52.17;;;17.70;99.90;;;;;;5038762;28;20453;-85
2022/08/05 04:45:19;;;;;;;69.83;67.40;;;17.70;99.90;;;;;;5040540;28;20499;-86
2022/08/05 04:47:46;;;;;;;81.07;78.33;;;17.60;99.90;;;;;;5024578;28;20554;-85
2022/08/05 04:50:46;;;;;;;;;;;;;;;;;;;;;
2022/08/05 04:53:15;;;;;;;93.80;90.70;;;17.60;99.90;;;;;;5038184;28;20466;-85
2022/08/05 04:55:45;;;;;;;99.27;95.97;;;17.60;99.90;;;;;;5039520;28;20458;-84
2022/08/05 04:58:15;;;;;;;102.27;98.87;;;17.60;99.90;;;;;;5040129;28;20449;-85
2022/08/05 05:00:43;;;;;;;98.53;95.27;;;17.70;99.90;;;;;;5040304;28;20833;-85
2022/08/05 05:03:11;;;;;;;104.63;101.23;;;17.70;99.90;;;;;;5038601;28;20572;-84
2022/08/05 05:06:01;;;;;;;112.57;108.90;;;17.80;99.90;;;;;;5038923;28;20457;-84
2022/08/05 05:08:28;;;;;;;117.73;113.93;;;17.70;99.90;;;;;;5040313;28;20841;-85
2022/08/05 05:10:56;;;;;;;117.53;113.63;;;17.80;99.90;;;;;;5037886;28;20534;-84
2022/08/05 05:13:53;;;;;;;120.40;116.43;;;17.70;99.90;;;;;;5038002;28;20500;-85
2022/08/05 05:16:20;;;;;;;128.10;124.00;;;17.80;99.90;;;;;;5035245;28;20552;-85
2022/08/05 05:18:47;;;;;;;137.10;132.77;;;17.70;99.90;;;;;;5036139;28;20942;-85
2022/08/05 05:21:14;;;;;;;142.70;138.20;;;17.80;99.90;;;;;;5041211;28;20465;-85
2022/08/05 05:23:41;;;;;;;155.70;150.80;;;17.90;99.90;;;;;;5041002;28;20908;-85
2022/08/05 05:26:14;;;;;;;158.40;153.43;;;17.90;99.90;;;;;;5040966;28;20885;-85
2022/08/05 05:28:41;;;;;;;163.50;158.40;;;17.90;99.90;;;;;;5038357;28;20456;-84
2022/08/05 05:31:55;;;;;;;165.57;160.37;;;17.80;99.90;;;;;;5037162;28;20455;-85
2022/08/05 05:34:22;;;;;;;160.97;156.00;;;17.90;99.90;;;;;;5015995;28;20541;-85
2022/08/05 05:37:03;;;;;;;164.80;159.70;;;17.90;99.90;;;;;;5040855;28;20467;-85
2022/08/05 05:39:30;;;;;;;177.60;172.20;;;17.90;99.90;;;;;;5040008;28;20453;-85
2022/08/05 05:42:06;;;;;;;174.77;169.33;;;17.90;99.90;;;;;;5039047;28;20546;-85
2022/08/05 05:44:33;;;;;;;186.00;180.40;;;17.90;99.90;;;;;;5039438;28;20486;-85
2022/08/05 05:47:01;;;;;;;172.27;166.97;;;17.80;99.90;;;;;;5040881;28;20445;-84
2022/08/05 05:49:42;;;;;;;;;;;;;;;;;;;;;
2022/08/05 05:56:02;;;;;;;213.77;207.37;;;17.90;99.90;;;;;;5042313;28;20487;-84
2022/08/05 05:58:30;;;;;;;220.23;213.83;;;17.80;99.90;;;;;;5041845;28;20494;-85
2022/08/05 06:01:35;;;;;;;234.57;227.77;;;17.80;99.90;;;;;;5042452;28;20942;-84
2022/08/05 06:07:30;;;;;;;281.63;273.73;;;17.60;99.90;;;;;;4874333;29;20494;-84
2022/08/05 06:13:18;;;;;;;320.83;311.73;;;17.90;99.90;;;;;;5009103;28;21064;-84
2022/08/05 06:19:52;;;;;;;;;;;;;;;;;;;;;
2022/08/05 06:25:44;;;;;;;360.37;350.17;;;17.70;99.90;;;;;;4926479;28;20586;-84
2022/08/05 06:28:11;;;;;;;378.57;367.87;;;17.80;99.90;;;;;;4999910;28;20528;-83
2022/08/05 06:30:38;;;;;;;385.80;374.77;;;17.80;99.90;;;;;;4998692;28;20537;-82
2022/08/05 06:33:06;;;;;;;416.80;404.77;;;17.90;99.90;;;;;;4996273;28;20467;-82
2022/08/05 06:35:33;;;;;;;434.83;422.17;;;17.80;99.90;;;;;;4997767;28;20562;-82
2022/08/05 06:38:00;;;;;;;419.07;406.83;;;17.80;99.90;;;;;;4995635;28;20985;-81
2022/08/05 06:40:30;;;;;;;446.20;432.97;;;17.80;99.90;;;;;;4996085;28;20558;-82
2022/08/05 06:43:03;;;;;;;466.17;451.87;;;17.70;99.90;;;;;;4995060;28;21013;-82
2022/08/05 06:45:30;;;;;;;445.53;432.17;;;17.70;99.90;;;;;;5000758;28;20473;-82
2022/08/05 06:47:57;;;;;;;457.37;443.53;;;17.80;99.90;;;;;;5005571;28;20491;-80
2022/08/05 06:50:25;;;;;;;478.20;463.60;;;17.70;99.90;;;;;;5006431;28;20453;-79
2022/08/05 06:52:53;;;;;;;473.90;459.30;;;17.80;99.90;;;;;;5008505;28;20474;-79
2022/08/05 06:55:20;;;;;;;495.53;480.03;;;17.70;99.90;;;;;;5007362;28;20454;-79
2022/08/05 06:57:46;;;;;;;481.00;466.03;;;17.60;99.90;;;;;;5009506;28;20523;-80
2022/08/05 07:00:13;;;;;;;504.30;488.07;;;17.40;99.90;;;;;;5007556;28;20458;-79
2022/08/05 07:02:44;;;;;;;511.87;494.87;;;17.40;99.90;;;;;;5003122;28;20831;-79
2022/08/05 07:05:11;;;;;;;499.40;483.07;;;17.30;99.90;;;;;;5005854;28;20477;-84
2022/08/05 07:07:39;;;;;;;519.20;501.70;;;17.20;99.90;;;;;;5005666;28;20454;-84
2022/08/05 07:10:08;;;;;;;523.33;505.67;;;17.20;99.90;;;;;;5006603;28;20463;-83
2022/08/05 07:18:31;;;;;;;508.90;490.30;;;17.10;99.90;;;;;;5007169;28;20426;-84
2022/08/05 07:21:42;;;;;;;;;;;;;;;;;;;;;
2022/08/05 07:36:49;;;;;;;502.67;483.40;;;17.00;99.90;;;;;;4977529;28;20548;-84
2022/08/05 07:39:43;;;;;;;498.20;479.50;;;16.90;99.90;;;;;;4996166;28;20490;-84
2022/08/05 07:42:10;;;;;;;509.40;490.03;;;17.00;99.90;;;;;;5040513;28;20470;-84
2022/08/05 07:44:37;;;;;;;509.03;489.67;;;16.90;99.90;;;;;;5042202;28;20902;-83
2022/08/05 07:47:30;;;;;;;506.77;487.47;;;16.80;99.90;;;;;;5043009;28;20623;-84
2022/08/05 07:49:56;;;;;;;531.00;509.90;;;16.90;99.90;;;;;;5014162;28;20553;-85
2022/08/05 07:52:56;;;;;;;532.40;510.80;;;17.00;99.90;;;;;;5043676;28;20900;-84
2022/08/05 07:55:37;;;;;;;560.63;538.23;;;17.00;99.90;;;;;;5022019;28;20475;-84
2022/08/05 08:01:24;;;;;;;534.93;513.93;;;17.10;99.90;;;;;;5019185;28;20487;-84
2022/08/05 08:04:03;;;;;;;524.67;504.50;;;17.00;99.90;;;;;;5069522;23;20471;-83
2022/08/05 08:06:51;;;;;;;544.60;523.13;;;17.00;99.90;;;;;;5020696;28;21018;-84
2022/08/05 08:12:59;;;;;;;454.97;438.47;;;16.90;99.90;;;;;;5021128;28;20478;-84
2022/08/05 08:15:31;;;;;;;493.53;474.93;;;16.70;99.90;;;;;;5020631;28;20459;-84
2022/08/05 08:18:23;;;;;;;456.73;440.17;;;16.70;99.90;;;;;;5021557;28;20477;-82
2022/08/05 08:21:12;;;;;;;344.13;332.87;;;16.60;99.90;;;;;;5018470;28;20480;-83
2022/08/05 08:24:22;;;;;;;286.40;277.37;;;16.80;99.90;;;;;;5022398;28;20466;-83
2022/08/05 08:27:29;;;;;;;;;;;;;;;;;;;;;
2022/08/05 08:30:59;;;;;;;170.87;165.07;;;16.40;99.90;;;;;;5016681;28;20457;-83
2022/08/05 08:34:01;;;;;;;157.63;152.53;;;16.50;99.90;;;;;;5024241;28;20481;-83
2022/08/05 08:36:28;;;;;;;161.43;156.17;;;16.50;99.90;;;;;;5024871;28;20446;-83
2022/08/05 08:39:16;;;;;;;218.23;211.43;;;16.40;99.90;;;;;;5023636;28;20449;-83
2022/08/05 08:45:33;;;;;;;263.20;255.10;;;16.50;99.90;;;;;;4937344;29;20574;-83
2022/08/05 08:48:18;;;;;;;335.00;324.60;;;16.50;99.90;;;;;;5009029;28;20452;-83
2022/08/05 08:51:16;;;;;;;313.57;303.83;;;16.50;99.90;;;;;;5022534;28;20457;-83
2022/08/05 08:54:12;;;;;;;371.87;360.03;;;16.60;99.90;;;;;;5022752;28;20465;-83
2022/08/05 08:57:10;;;;;;;416.70;402.60;;;16.40;99.90;;;;;;5023028;28;20520;-83
2022/08/05 09:00:00;;;;;;;;;;;;;;;;;;;;;
2022/08/05 09:05:45;;;;;;;542.23;520.93;;;16.60;99.90;;;;;;5018167;28;20493;-83
2022/08/05 09:08:27;;;;;;;458.23;441.23;;;16.80;99.90;;;;;;5021420;28;20460;-83
2022/08/05 09:10:54;;;;;;;547.87;525.97;;;16.70;99.90;;;;;;5015415;28;20520;-83
2022/08/05 09:13:21;;;;;;;552.77;530.47;;;16.90;99.90;;;;;;5014164;28;20482;-83
2022/08/05 09:15:48;;;;;;;502.57;483.13;;;17.10;99.90;;;;;;5014694;28;20453;-82
2022/08/05 09:18:16;;;;;;;564.47;541.27;;;17.10;99.90;;;;;;5014161;28;20463;-83
2022/08/05 09:20:44;;;;;;;525.70;504.77;;;17.40;99.90;;;;;;5013543;28;20455;-82
2022/08/05 09:23:13;;;;;;;553.20;530.53;;;17.50;99.90;;;;;;5015809;28;20476;-81
2022/08/05 09:25:41;;;;;;;479.03;460.43;;;17.70;99.90;;;;;;5019199;28;20486;-83
2022/08/05 09:28:16;;;;;;;549.30;526.10;;;17.80;99.90;;;;;;5018683;28;20835;-83
2022/08/05 09:30:52;;;;;;;475.13;456.37;;;18.00;99.90;;;;;;5015881;28;20458;-81
2022/08/05 09:33:21;;;;;;;448.40;431.10;;;18.10;99.90;;;;;;5014873;28;20537;-82
2022/08/05 09:35:57;;;;;;;364.10;351.60;;;18.30;99.90;;;;;;5014220;28;20831;-81
2022/08/05 09:38:24;;;;;;;396.23;382.37;;;18.30;99.90;;;;;;5015425;28;20463;-84
2022/08/05 09:40:55;;;;;;;350.37;339.03;;;18.20;99.90;;;;;;5018798;28;20457;-83
2022/08/05 09:43:31;;;;;;;358.00;346.53;;;17.90;99.90;;;;;;5019455;28;20479;-84
2022/08/05 09:45:58;;;;;;;395.00;382.00;;;17.90;99.90;;;;;;5019519;28;20486;-83
2022/08/05 09:48:28;;;;;;;310.50;301.10;;;17.80;99.90;;;;;;5021021;28;20952;-83
2022/08/05 09:50:57;;;;;;;312.00;302.53;;;18.00;99.90;;;;;;5020658;28;20458;-84
2022/08/05 09:53:25;;;;;;;305.67;296.47;;;17.90;99.90;;;;;;5020038;28;20473;-84
2022/08/05 09:55:53;;;;;;;257.83;250.13;;;18.00;99.90;;;;;;5020653;28;20528;-83
2022/08/05 09:58:20;;;;;;;238.33;231.13;;;18.20;99.90;;;;;;5020911;28;20479;-83
2022/08/05 10:00:56;;;;;;;170.67;165.23;;;18.40;99.90;;;;;;5020758;28;20465;-84
2022/08/05 10:03:24;;;;;;;142.40;137.80;;;18.50;99.90;;;;;;5019933;28;20481;-83
2022/08/05 10:06:03;;;;;;;139.70;135.20;;;18.90;99.90;;;;;;5021203;28;20497;-84
2022/08/05 10:08:30;;;;;;;125.80;121.70;;;19.00;99.90;;;;;;5019869;28;20456;-83
2022/08/05 10:10:57;;;;;;;115.67;111.90;;;19.20;99.90;;;;;;5015827;28;20516;-87
2022/08/05 10:13:29;;;;;;;102.23;98.83;;;19.20;99.00;;;;;;5012368;28;21004;-86
2022/08/05 10:15:59;;;;;;;91.90;88.80;;;19.10;97.60;;;;;;5012404;28;20450;-86
2022/08/05 10:18:26;;;;;;;80.23;77.43;;;19.20;98.20;;;;;;5019709;28;20457;-84
2022/08/05 10:20:55;;;;;;;59.60;57.50;;;19.40;97.30;;;;;;5021899;28;20454;-84
2022/08/05 10:23:28;;;;;;;49.60;47.80;;;19.30;95.80;;;;;;5016845;28;20939;-83
2022/08/05 10:25:59;;;;;;;38.90;37.40;;;19.30;96.90;;;;;;5015722;28;20473;-84
2022/08/05 10:28:27;;;;;;;33.10;31.80;;;19.50;96.10;;;;;;5016800;28;20470;-84
2022/08/05 10:30:57;;;;;;;26.50;25.40;;;19.50;95.90;;;;;;5017402;28;20453;-83
2022/08/05 10:33:26;;;;;;;21.60;20.70;;;19.70;95.00;;;;;;5017269;28;20464;-83
2022/08/05 10:36:02;;;;;;;19.70;18.80;;;19.80;95.00;;;;;;5017219;28;20488;-84
2022/08/05 10:38:32;;;;;;;16.53;15.73;;;20.00;95.80;;;;;;5016482;28;20485;-84
2022/08/05 10:41:08;;;;;;;13.70;13.00;;;20.20;92.50;;;;;;5012128;28;20461;-83
2022/08/05 10:43:46;;;;;;;10.70;10.07;;;20.40;89.20;;;;;;5015541;28;20487;-83
2022/08/05 10:46:17;;;;;;;8.30;7.80;;;20.80;90.20;;;;;;5015080;28;20888;-83
2022/08/05 10:48:47;;;;;;;5.43;5.03;;;21.70;83.20;;;;;;5015492;28;20452;-84
2022/08/05 10:51:18;;;;;;;3.80;3.20;;;21.60;79.80;;;;;;5015467;28;20458;-83
2022/08/05 10:53:54;;;;;;;4.53;2.37;;;22.10;76.10;;;;;;5015198;28;20479;-83
2022/08/05 10:56:23;;;;;;;3.37;1.67;;;22.10;72.00;;;;;;5014778;28;20454;-84
2022/08/05 10:59:06;;;;;;;3.40;1.37;;;21.90;76.40;;;;;;5014885;28;21068;-84
2022/08/05 11:01:34;;;;;;;3.40;1.60;;;21.30;76.10;;;;;;5014662;28;20464;-84
2022/08/05 11:04:03;;;;;;;3.60;1.70;;;21.70;74.50;;;;;;5014237;28;20999;-82
2022/08/05 11:06:31;;;;;;;4.30;1.23;;;22.40;73.10;;;;;;5014627;28;21104;-84
2022/08/05 11:09:22;;;;;;;3.20;0.70;;;22.70;69.00;;;;;;5013152;28;20462;-85
2022/08/05 11:11:50;;;;;;;3.10;0.70;;;22.60;68.20;;;;;;5014967;28;20461;-84
2022/08/05 11:14:26;;;;;;;3.10;0.67;;;22.00;66.30;;;;;;5014120;28;20475;-84
2022/08/05 11:17:29;;;;;;;3.20;0.70;;;22.50;70.60;;;;;;5014589;28;20852;-84
2022/08/05 11:19:57;;;;;;;3.20;0.70;;;22.60;63.70;;;;;;5014525;28;20455;-84
2022/08/05 11:22:46;;;;;;;3.60;1.17;;;23.10;62.20;;;;;;5014779;28;20922;-85
2022/08/05 11:25:34;;;;;;;3.70;1.33;;;22.80;64.40;;;;;;5014368;28;20447;-84
2022/08/05 11:28:41;;;;;;;3.20;0.70;;;23.50;58.60;;;;;;5014407;28;20454;-84
2022/08/05 11:31:31;;;;;;;4.17;1.83;;;24.10;59.40;;;;;;5014396;28;20445;-84
2022/08/05 11:34:00;;;;;;;3.20;0.60;;;24.20;48.30;;;;;;5013988;28;20472;-84
2022/08/05 11:36:48;;;;;;;3.43;0.93;;;24.20;49.40;;;;;;5014429;28;20487;-84
2022/08/05 11:39:19;;;;;;;3.83;0.87;;;23.80;55.30;;;;;;5014452;28;20520;-84
2022/08/05 11:41:58;;;;;;;3.40;0.80;;;23.70;49.80;;;;;;5014341;28;20809;-84
2022/08/05 11:44:35;;;;;;;5.00;1.47;;;24.80;46.40;;;;;;5013936;28;21051;-85
2022/08/05 11:47:03;;;;;;;3.30;0.50;;;25.00;47.20;;;;;;5013595;28;20449;-84
2022/08/05 11:49:39;;;;;;;11.63;1.80;;;25.10;43.20;;;;;;5014147;28;20523;-85
2022/08/05 11:52:06;;;;;;;3.20;0.50;;;26.00;41.50;;;;;;5014058;28;20453;-85
2022/08/05 11:54:35;;;;;;;3.30;0.60;;;26.30;40.30;;;;;;5013491;28;20477;-84
2022/08/05 11:57:05;;;;;;;3.70;1.07;;;27.20;35.20;;;;;;5013595;28;20483;-85
2022/08/05 11:59:33;;;;;;;3.70;1.00;;;27.10;32.20;;;;;;5013683;28;20460;-85
2022/08/05 12:02:01;;;;;;;3.37;0.70;;;26.60;30.20;;;;;;5013552;28;20449;-85
2022/08/05 12:04:37;;;;;;;3.30;0.50;;;26.70;27.10;;;;;;5013431;28;20574;-84
2022/08/05 12:07:04;;;;;;;3.50;0.97;;;26.20;28.10;;;;;;5013648;28;20521;-85
2022/08/05 12:09:37;;;;;;;3.40;0.50;;;26.00;29.30;;;;;;5013309;28;20556;-84
2022/08/05 12:12:07;;;;;;;3.47;0.60;;;25.70;31.10;;;;;;5013446;28;21005;-84
2022/08/05 12:14:38;;;;;;;3.47;0.50;;;24.70;36.50;;;;;;5013125;28;20469;-85
2022/08/05 12:17:09;;;;;;;3.50;0.60;;;24.10;39.10;;;;;;5013306;28;20500;-84
2022/08/05 12:19:43;;;;;;;3.50;0.60;;;24.20;42.90;;;;;;5013551;28;20549;-84
2022/08/05 12:22:11;;;;;;;3.60;0.80;;;25.00;37.40;;;;;;5013295;28;20503;-83
2022/08/05 12:24:41;;;;;;;3.40;0.50;;;25.60;33.40;;;;;;5008632;28;20806;-85
2022/08/05 12:27:10;;;;;;;3.70;0.90;;;26.00;31.40;;;;;;4993877;28;20454;-85
2022/08/05 12:29:37;;;;;;;3.40;0.60;;;26.70;30.00;;;;;;4993752;28;20457;-85
2022/08/05 12:32:06;;;;;;;3.57;0.80;;;26.70;28.10;;;;;;4993699;28;20951;-85
2022/08/05 12:34:59;;;;;;;3.40;0.50;;;26.30;26.20;;;;;;4994275;28;20473;-83
2022/08/05 12:38:14;;;;;;;5.05;1.85;;;26.20;25.20;;;;;;4994207;28;20854;-83
2022/08/05 12:41:09;;;;;;;8.97;4.10;;;26.90;28.00;;;;;;4993842;28;20203;-83
2022/08/05 12:51:04;;;;;;;8.27;4.17;;;25.30;26.00;;;;;;4992110;28;20458;-83
2022/08/05 12:57:39;;;;;;;8.30;3.10;;;26.80;26.70;;;;;;4884015;29;20523;-83
2022/08/05 13:00:50;;;;;;;8.30;3.20;;;26.10;24.40;;;;;;4993612;28;20976;-83
2022/08/05 13:13:09;;;;;;;10.67;3.43;;;28.70;17.90;;;;;;4948688;28;20465;-82
2022/08/05 13:32:12;;;;;;;7.90;3.20;;;24.90;25.60;;;;;;5008810;28;20538;-85
2022/08/05 13:34:53;;;;;;;7.77;3.10;;;23.60;27.50;;;;;;5038524;28;20525;-85
2022/08/05 13:37:21;;;;;;;10.93;3.23;;;22.80;32.60;;;;;;5037521;28;20464;-84
2022/08/05 13:39:48;;;;;;;7.40;3.00;;;21.80;42.70;;;;;;5041015;28;20930;-84
2022/08/05 13:42:15;;;;;;;5.87;3.10;;;21.30;46.90;;;;;;5043861;28;20457;-84
2022/08/05 13:44:43;;;;;;;9.03;3.47;;;21.10;50.80;;;;;;5045134;28;20459;-84
2022/08/05 13:47:10;;;;;;;7.83;2.73;;;21.10;52.20;;;;;;5044485;28;20459;-86
2022/08/05 13:49:37;;;;;;;5.47;2.10;;;21.80;50.40;;;;;;5045205;28;20462;-84
2022/08/05 13:52:11;;;;;;;5.43;2.10;;;22.60;43.00;;;;;;5046987;28;20449;-84
2022/08/05 13:54:38;;;;;;;9.70;2.87;;;23.00;38.10;;;;;;5050131;28;20453;-82
2022/08/05 13:57:05;;;;;;;8.03;3.03;;;23.40;38.50;;;;;;5047079;28;20480;-85
2022/08/05 13:59:32;;;;;;;7.23;2.73;;;23.40;38.10;;;;;;5046740;28;20481;-85
2022/08/05 14:02:02;;;;;;;8.18;2.78;;;23.10;37.40;;;;;;5046816;28;20394;-85
2022/08/05 14:07:16;;;;;;;8.27;3.03;;;22.50;40.50;;;;;;5047926;28;20442;-84
2022/08/05 14:09:43;;;;;;;9.60;5.03;;;22.60;45.30;;;;;;5048999;28;20454;-84
2022/08/05 14:12:11;;;;;;;6.90;3.47;;;22.80;43.90;;;;;;5049893;28;20489;-85
2022/08/05 14:15:10;;;;;;;12.07;4.10;;;22.50;45.30;;;;;;5048839;28;20970;-85
2022/08/05 14:17:38;;;;;;;5.03;2.63;;;22.60;40.80;;;;;;5050250;28;20491;-84
2022/08/05 14:20:09;;;;;;;8.00;2.90;;;22.50;43.20;;;;;;5050480;28;20440;-87
2022/08/05 14:22:36;;;;;;;7.30;2.80;;;22.30;41.60;;;;;;5047147;28;20467;-86
2022/08/05 14:25:03;;;;;;;6.20;3.67;;;22.20;43.50;;;;;;5048922;28;20496;-86
2022/08/05 14:27:30;;;;;;;13.60;3.80;;;22.10;43.70;;;;;;5049993;28;20453;-85
2022/08/05 14:29:57;;;;;;;8.13;3.17;;;22.10;43.00;;;;;;5049788;28;20443;-86
2022/08/05 14:32:24;;;;;;;7.47;2.90;;;22.10;41.50;;;;;;5048091;28;20488;-85
2022/08/05 14:34:53;;;;;;;7.10;2.53;;;22.00;35.70;;;;;;5048893;28;20444;-87
2022/08/05 14:37:22;;;;;;;9.73;3.00;;;22.30;39.30;;;;;;5049230;28;20481;-86